sensor_id;sensor_type;location;lat;lon;timestamp;P1;durP1;ratioP1;P2;durP2;ratioP2
10715;SDS011;5409;42.620;23.316;2023-03-16T00:00:53;0.80;;;0.80;;
10715;SDS011;5409;42.620;23.316;2023-03-16T00:03:20;1.08;;;0.90;;
10715;SDS011;5409;42.620;23.316;2023-03-16T00:05:47;0.85;;;0.85;;
10715;SDS011;5409;42.620;23.316;2023-03-16T00:08:14;0.90;;;0.90;;
10715;SDS011;5409;42.620;23.316;2023-03-16T00:10:41;0.88;;;0.88;;
10715;SDS011;5409;42.620;23.316;2023-03-16T00:13:11;0.82;;;0.82;;
10715;SDS011;5409;42.620;23.316;2023-03-16T00:15:37;0.80;;;0.80;;
10715;SDS011;5409;42.620;23.316;2023-03-16T00:18:05;1.08;;;0.98;;
10715;SDS011;5409;42.620;23.316;2023-03-16T00:20:32;1.15;;;1.02;;
10715;SDS011;5409;42.620;23.316;2023-03-16T00:22:58;1.20;;;0.90;;
10715;SDS011;5409;42.620;23.316;2023-03-16T00:25:26;0.93;;;0.90;;
10715;SDS011;5409;42.620;23.316;2023-03-16T00:27:53;0.82;;;0.80;;
10715;SDS011;5409;42.620;23.316;2023-03-16T00:30:19;0.90;;;0.90;;
10715;SDS011;5409;42.620;23.316;2023-03-16T00:32:46;1.08;;;1.00;;
10715;SDS011;5409;42.620;23.316;2023-03-16T00:35:14;0.98;;;0.98;;
10715;SDS011;5409;42.620;23.316;2023-03-16T00:37:41;1.10;;;1.00;;
10715;SDS011;5409;42.620;23.316;2023-03-16T00:40:08;0.90;;;0.90;;
10715;SDS011;5409;42.620;23.316;2023-03-16T00:42:37;1.08;;;1.02;;
10715;SDS011;5409;42.620;23.316;2023-03-16T00:45:03;0.93;;;0.93;;
10715;SDS011;5409;42.620;23.316;2023-03-16T00:47:31;0.95;;;0.95;;
10715;SDS011;5409;42.620;23.316;2023-03-16T00:49:57;1.60;;;0.98;;
10715;SDS011;5409;42.620;23.316;2023-03-16T00:52:26;0.93;;;0.85;;
10715;SDS011;5409;42.620;23.316;2023-03-16T00:54:53;0.80;;;0.80;;
10715;SDS011;5409;42.620;23.316;2023-03-16T00:57:21;0.90;;;0.90;;
10715;SDS011;5409;42.620;23.316;2023-03-16T00:59:48;0.88;;;0.88;;
10715;SDS011;5409;42.620;23.316;2023-03-16T01:02:15;0.80;;;0.80;;
10715;SDS011;5409;42.620;23.316;2023-03-16T01:04:44;1.00;;;0.95;;
10715;SDS011;5409;42.620;23.316;2023-03-16T01:07:11;1.10;;;1.10;;
10715;SDS011;5409;42.620;23.316;2023-03-16T01:09:39;0.70;;;0.70;;
10715;SDS011;5409;42.620;23.316;2023-03-16T01:12:07;5.03;;;0.85;;
10715;SDS011;5409;42.620;23.316;2023-03-16T01:14:34;0.80;;;0.80;;
10715;SDS011;5409;42.620;23.316;2023-03-16T01:17:01;1.10;;;0.75;;
10715;SDS011;5409;42.620;23.316;2023-03-16T01:19:27;0.80;;;0.80;;
10715;SDS011;5409;42.620;23.316;2023-03-16T01:21:54;0.95;;;0.90;;
10715;SDS011;5409;42.620;23.316;2023-03-16T01:24:21;0.70;;;0.70;;
10715;SDS011;5409;42.620;23.316;2023-03-16T01:26:49;0.80;;;0.70;;
10715;SDS011;5409;42.620;23.316;2023-03-16T01:29:16;1.75;;;0.80;;
10715;SDS011;5409;42.620;23.316;2023-03-16T01:31:43;1.35;;;0.80;;
10715;SDS011;5409;42.620;23.316;2023-03-16T01:34:09;0.93;;;0.80;;
10715;SDS011;5409;42.620;23.316;2023-03-16T01:36:40;1.27;;;1.00;;
10715;SDS011;5409;42.620;23.316;2023-03-16T01:39:08;0.77;;;0.77;;
10715;SDS011;5409;42.620;23.316;2023-03-16T01:41:35;0.70;;;0.70;;
10715;SDS011;5409;42.620;23.316;2023-03-16T01:44:03;0.60;;;0.60;;
10715;SDS011;5409;42.620;23.316;2023-03-16T01:46:29;0.60;;;0.60;;
10715;SDS011;5409;42.620;23.316;2023-03-16T01:49:01;0.70;;;0.70;;
10715;SDS011;5409;42.620;23.316;2023-03-16T01:51:30;0.70;;;0.70;;
10715;SDS011;5409;42.620;23.316;2023-03-16T01:54:00;0.85;;;0.85;;
10715;SDS011;5409;42.620;23.316;2023-03-16T01:56:29;0.80;;;0.80;;
10715;SDS011;5409;42.620;23.316;2023-03-16T01:58:58;0.60;;;0.60;;
10715;SDS011;5409;42.620;23.316;2023-03-16T02:01:28;0.90;;;0.90;;
10715;SDS011;5409;42.620;23.316;2023-03-16T02:03:56;0.70;;;0.70;;
10715;SDS011;5409;42.620;23.316;2023-03-16T02:06:25;3.85;;;0.82;;
10715;SDS011;5409;42.620;23.316;2023-03-16T02:08:52;0.60;;;0.60;;
10715;SDS011;5409;42.620;23.316;2023-03-16T02:11:20;0.80;;;0.80;;
10715;SDS011;5409;42.620;23.316;2023-03-16T02:13:47;0.70;;;0.70;;
10715;SDS011;5409;42.620;23.316;2023-03-16T02:16:14;0.75;;;0.75;;
10715;SDS011;5409;42.620;23.316;2023-03-16T02:18:44;0.60;;;0.60;;
10715;SDS011;5409;42.620;23.316;2023-03-16T02:21:13;0.60;;;0.60;;
10715;SDS011;5409;42.620;23.316;2023-03-16T02:23:42;1.13;;;1.02;;
10715;SDS011;5409;42.620;23.316;2023-03-16T02:26:09;1.15;;;0.95;;
10715;SDS011;5409;42.620;23.316;2023-03-16T02:28:40;0.68;;;0.68;;
10715;SDS011;5409;42.620;23.316;2023-03-16T02:31:13;0.82;;;0.80;;
10715;SDS011;5409;42.620;23.316;2023-03-16T02:33:40;1.02;;;0.95;;
10715;SDS011;5409;42.620;23.316;2023-03-16T02:36:08;0.80;;;0.80;;
10715;SDS011;5409;42.620;23.316;2023-03-16T02:38:34;0.70;;;0.70;;
10715;SDS011;5409;42.620;23.316;2023-03-16T02:41:08;0.80;;;0.80;;
10715;SDS011;5409;42.620;23.316;2023-03-16T02:43:36;0.65;;;0.65;;
10715;SDS011;5409;42.620;23.316;2023-03-16T02:46:03;0.73;;;0.73;;
10715;SDS011;5409;42.620;23.316;2023-03-16T02:48:36;0.60;;;0.60;;
10715;SDS011;5409;42.620;23.316;2023-03-16T02:51:06;0.63;;;0.63;;
10715;SDS011;5409;42.620;23.316;2023-03-16T02:53:33;0.60;;;0.60;;
10715;SDS011;5409;42.620;23.316;2023-03-16T02:56:00;0.82;;;0.82;;
10715;SDS011;5409;42.620;23.316;2023-03-16T02:58:27;0.60;;;0.60;;
10715;SDS011;5409;42.620;23.316;2023-03-16T03:00:54;0.70;;;0.70;;
10715;SDS011;5409;42.620;23.316;2023-03-16T03:03:21;0.70;;;0.70;;
10715;SDS011;5409;42.620;23.316;2023-03-16T03:05:48;0.60;;;0.60;;
10715;SDS011;5409;42.620;23.316;2023-03-16T03:08:15;0.70;;;0.70;;
10715;SDS011;5409;42.620;23.316;2023-03-16T03:10:44;0.80;;;0.80;;
10715;SDS011;5409;42.620;23.316;2023-03-16T03:13:11;0.60;;;0.60;;
10715;SDS011;5409;42.620;23.316;2023-03-16T03:15:37;0.60;;;0.60;;
10715;SDS011;5409;42.620;23.316;2023-03-16T03:18:04;0.70;;;0.70;;
10715;SDS011;5409;42.620;23.316;2023-03-16T03:20:31;0.60;;;0.60;;
10715;SDS011;5409;42.620;23.316;2023-03-16T03:22:59;0.70;;;0.70;;
10715;SDS011;5409;42.620;23.316;2023-03-16T03:25:27;1.20;;;0.73;;
10715;SDS011;5409;42.620;23.316;2023-03-16T03:27:53;0.50;;;0.50;;
10715;SDS011;5409;42.620;23.316;2023-03-16T03:30:20;0.60;;;0.60;;
10715;SDS011;5409;42.620;23.316;2023-03-16T03:32:48;0.57;;;0.57;;
10715;SDS011;5409;42.620;23.316;2023-03-16T03:35:16;0.83;;;0.83;;
10715;SDS011;5409;42.620;23.316;2023-03-16T03:37:43;0.70;;;0.70;;
10715;SDS011;5409;42.620;23.316;2023-03-16T03:40:12;0.80;;;0.80;;
10715;SDS011;5409;42.620;23.316;2023-03-16T03:42:39;0.60;;;0.60;;
10715;SDS011;5409;42.620;23.316;2023-03-16T03:45:06;0.60;;;0.60;;
10715;SDS011;5409;42.620;23.316;2023-03-16T03:47:33;0.90;;;0.90;;
10715;SDS011;5409;42.620;23.316;2023-03-16T03:49:59;0.80;;;0.80;;
10715;SDS011;5409;42.620;23.316;2023-03-16T03:52:26;0.77;;;0.77;;
10715;SDS011;5409;42.620;23.316;2023-03-16T03:54:53;0.60;;;0.60;;
10715;SDS011;5409;42.620;23.316;2023-03-16T03:57:21;0.50;;;0.50;;
10715;SDS011;5409;42.620;23.316;2023-03-16T03:59:47;0.77;;;0.77;;
10715;SDS011;5409;42.620;23.316;2023-03-16T04:02:14;0.60;;;0.60;;
10715;SDS011;5409;42.620;23.316;2023-03-16T04:04:41;0.57;;;0.57;;
10715;SDS011;5409;42.620;23.316;2023-03-16T04:07:08;0.47;;;0.47;;
10715;SDS011;5409;42.620;23.316;2023-03-16T04:09:34;0.57;;;0.57;;
10715;SDS011;5409;42.620;23.316;2023-03-16T04:12:01;0.60;;;0.60;;
10715;SDS011;5409;42.620;23.316;2023-03-16T04:14:30;0.60;;;0.60;;
10715;SDS011;5409;42.620;23.316;2023-03-16T04:16:57;0.70;;;0.70;;
10715;SDS011;5409;42.620;23.316;2023-03-16T04:19:24;0.50;;;0.50;;
10715;SDS011;5409;42.620;23.316;2023-03-16T04:21:50;0.50;;;0.50;;
10715;SDS011;5409;42.620;23.316;2023-03-16T04:24:17;0.60;;;0.60;;
10715;SDS011;5409;42.620;23.316;2023-03-16T04:26:44;0.50;;;0.50;;
10715;SDS011;5409;42.620;23.316;2023-03-16T04:29:10;0.60;;;0.60;;
10715;SDS011;5409;42.620;23.316;2023-03-16T04:31:39;0.60;;;0.60;;
10715;SDS011;5409;42.620;23.316;2023-03-16T04:34:07;2.73;;;1.03;;
10715;SDS011;5409;42.620;23.316;2023-03-16T04:36:34;3.20;;;1.00;;
10715;SDS011;5409;42.620;23.316;2023-03-16T04:39:00;0.60;;;0.60;;
10715;SDS011;5409;42.620;23.316;2023-03-16T04:41:27;0.85;;;0.80;;
10715;SDS011;5409;42.620;23.316;2023-03-16T04:43:54;0.65;;;0.65;;
10715;SDS011;5409;42.620;23.316;2023-03-16T04:46:21;0.90;;;0.70;;
10715;SDS011;5409;42.620;23.316;2023-03-16T04:48:49;1.95;;;0.70;;
10715;SDS011;5409;42.620;23.316;2023-03-16T04:51:16;0.50;;;0.50;;
10715;SDS011;5409;42.620;23.316;2023-03-16T04:53:42;0.60;;;0.60;;
10715;SDS011;5409;42.620;23.316;2023-03-16T04:56:09;0.60;;;0.60;;
10715;SDS011;5409;42.620;23.316;2023-03-16T04:58:42;0.70;;;0.70;;
10715;SDS011;5409;42.620;23.316;2023-03-16T05:01:08;0.60;;;0.60;;
10715;SDS011;5409;42.620;23.316;2023-03-16T05:03:35;0.60;;;0.60;;
10715;SDS011;5409;42.620;23.316;2023-03-16T05:06:03;0.60;;;0.60;;
10715;SDS011;5409;42.620;23.316;2023-03-16T05:08:29;0.60;;;0.60;;
10715;SDS011;5409;42.620;23.316;2023-03-16T05:10:56;0.60;;;0.60;;
10715;SDS011;5409;42.620;23.316;2023-03-16T05:13:22;0.60;;;0.60;;
10715;SDS011;5409;42.620;23.316;2023-03-16T05:15:49;0.70;;;0.70;;
10715;SDS011;5409;42.620;23.316;2023-03-16T05:18:17;0.52;;;0.52;;
10715;SDS011;5409;42.620;23.316;2023-03-16T05:20:44;2.43;;;1.70;;
10715;SDS011;5409;42.620;23.316;2023-03-16T05:23:12;0.77;;;0.77;;
10715;SDS011;5409;42.620;23.316;2023-03-16T05:25:38;2.33;;;1.08;;
10715;SDS011;5409;42.620;23.316;2023-03-16T05:28:05;0.80;;;0.80;;
10715;SDS011;5409;42.620;23.316;2023-03-16T05:30:31;1.77;;;0.80;;
10715;SDS011;5409;42.620;23.316;2023-03-16T05:32:58;1.13;;;0.90;;
10715;SDS011;5409;42.620;23.316;2023-03-16T05:35:24;0.57;;;0.57;;
10715;SDS011;5409;42.620;23.316;2023-03-16T05:37:52;1.00;;;1.00;;
10715;SDS011;5409;42.620;23.316;2023-03-16T05:40:20;0.70;;;0.70;;
10715;SDS011;5409;42.620;23.316;2023-03-16T05:42:47;0.70;;;0.70;;
10715;SDS011;5409;42.620;23.316;2023-03-16T05:45:15;0.73;;;0.73;;
10715;SDS011;5409;42.620;23.316;2023-03-16T05:47:42;0.60;;;0.60;;
10715;SDS011;5409;42.620;23.316;2023-03-16T05:50:09;0.70;;;0.70;;
10715;SDS011;5409;42.620;23.316;2023-03-16T05:52:36;0.70;;;0.70;;
10715;SDS011;5409;42.620;23.316;2023-03-16T05:55:03;0.60;;;0.60;;
10715;SDS011;5409;42.620;23.316;2023-03-16T05:57:32;0.67;;;0.67;;
10715;SDS011;5409;42.620;23.316;2023-03-16T05:59:58;1.03;;;0.93;;
10715;SDS011;5409;42.620;23.316;2023-03-16T06:02:25;0.60;;;0.60;;
10715;SDS011;5409;42.620;23.316;2023-03-16T06:04:52;1.27;;;0.80;;
10715;SDS011;5409;42.620;23.316;2023-03-16T06:07:18;0.70;;;0.70;;
10715;SDS011;5409;42.620;23.316;2023-03-16T06:09:45;0.70;;;0.70;;
10715;SDS011;5409;42.620;23.316;2023-03-16T06:12:12;0.73;;;0.73;;
10715;SDS011;5409;42.620;23.316;2023-03-16T06:14:40;0.97;;;0.87;;
10715;SDS011;5409;42.620;23.316;2023-03-16T06:17:06;1.07;;;0.97;;
10715;SDS011;5409;42.620;23.316;2023-03-16T06:19:33;0.80;;;0.80;;
10715;SDS011;5409;42.620;23.316;2023-03-16T06:21:59;0.63;;;0.63;;
10715;SDS011;5409;42.620;23.316;2023-03-16T06:24:26;0.80;;;0.80;;
10715;SDS011;5409;42.620;23.316;2023-03-16T06:26:52;1.00;;;0.70;;
10715;SDS011;5409;42.620;23.316;2023-03-16T06:29:19;0.77;;;0.77;;
10715;SDS011;5409;42.620;23.316;2023-03-16T06:31:47;0.60;;;0.60;;
10715;SDS011;5409;42.620;23.316;2023-03-16T06:34:15;0.60;;;0.60;;
10715;SDS011;5409;42.620;23.316;2023-03-16T06:36:41;0.70;;;0.70;;
10715;SDS011;5409;42.620;23.316;2023-03-16T06:39:08;0.88;;;0.88;;
10715;SDS011;5409;42.620;23.316;2023-03-16T06:41:34;3.90;;;0.90;;
10715;SDS011;5409;42.620;23.316;2023-03-16T06:44:02;0.60;;;0.60;;
10715;SDS011;5409;42.620;23.316;2023-03-16T06:46:30;0.70;;;0.70;;
10715;SDS011;5409;42.620;23.316;2023-03-16T06:48:58;0.60;;;0.60;;
10715;SDS011;5409;42.620;23.316;2023-03-16T06:51:25;0.90;;;0.87;;
10715;SDS011;5409;42.620;23.316;2023-03-16T06:53:51;1.30;;;1.20;;
10715;SDS011;5409;42.620;23.316;2023-03-16T06:56:18;0.80;;;0.80;;
10715;SDS011;5409;42.620;23.316;2023-03-16T06:58:44;0.70;;;0.70;;
10715;SDS011;5409;42.620;23.316;2023-03-16T07:01:11;0.80;;;0.80;;
10715;SDS011;5409;42.620;23.316;2023-03-16T07:03:37;1.07;;;1.00;;
10715;SDS011;5409;42.620;23.316;2023-03-16T07:06:05;0.80;;;0.80;;
10715;SDS011;5409;42.620;23.316;2023-03-16T07:08:32;0.80;;;0.80;;
10715;SDS011;5409;42.620;23.316;2023-03-16T07:10:59;0.82;;;0.82;;
10715;SDS011;5409;42.620;23.316;2023-03-16T07:13:25;0.80;;;0.73;;
10715;SDS011;5409;42.620;23.316;2023-03-16T07:15:52;0.80;;;0.80;;
10715;SDS011;5409;42.620;23.316;2023-03-16T07:18:19;0.70;;;0.70;;
10715;SDS011;5409;42.620;23.316;2023-03-16T07:20:45;0.67;;;0.67;;
10715;SDS011;5409;42.620;23.316;2023-03-16T07:23:13;0.77;;;0.77;;
10715;SDS011;5409;42.620;23.316;2023-03-16T07:25:40;0.60;;;0.60;;
10715;SDS011;5409;42.620;23.316;2023-03-16T07:28:06;0.90;;;0.90;;
10715;SDS011;5409;42.620;23.316;2023-03-16T07:30:33;0.80;;;0.80;;
10715;SDS011;5409;42.620;23.316;2023-03-16T07:32:59;0.63;;;0.63;;
10715;SDS011;5409;42.620;23.316;2023-03-16T07:35:26;0.93;;;0.93;;
10715;SDS011;5409;42.620;23.316;2023-03-16T07:37:53;0.70;;;0.70;;
10715;SDS011;5409;42.620;23.316;2023-03-16T07:40:21;0.70;;;0.70;;
10715;SDS011;5409;42.620;23.316;2023-03-16T07:42:48;0.70;;;0.70;;
10715;SDS011;5409;42.620;23.316;2023-03-16T07:45:14;0.88;;;0.80;;
10715;SDS011;5409;42.620;23.316;2023-03-16T07:47:42;1.00;;;0.85;;
10715;SDS011;5409;42.620;23.316;2023-03-16T07:50:08;0.70;;;0.70;;
10715;SDS011;5409;42.620;23.316;2023-03-16T07:52:35;0.75;;;0.75;;
10715;SDS011;5409;42.620;23.316;2023-03-16T07:55:02;0.60;;;0.60;;
10715;SDS011;5409;42.620;23.316;2023-03-16T07:57:30;0.80;;;0.80;;
10715;SDS011;5409;42.620;23.316;2023-03-16T07:59:57;1.00;;;0.90;;
10715;SDS011;5409;42.620;23.316;2023-03-16T08:02:23;0.90;;;0.90;;
10715;SDS011;5409;42.620;23.316;2023-03-16T08:04:50;0.70;;;0.70;;
10715;SDS011;5409;42.620;23.316;2023-03-16T08:07:16;0.70;;;0.70;;
10715;SDS011;5409;42.620;23.316;2023-03-16T08:09:43;0.80;;;0.80;;
10715;SDS011;5409;42.620;23.316;2023-03-16T08:12:10;0.80;;;0.80;;
10715;SDS011;5409;42.620;23.316;2023-03-16T08:14:38;1.08;;;1.08;;
10715;SDS011;5409;42.620;23.316;2023-03-16T08:17:04;0.85;;;0.85;;
10715;SDS011;5409;42.620;23.316;2023-03-16T08:19:31;0.95;;;0.95;;
10715;SDS011;5409;42.620;23.316;2023-03-16T08:21:58;1.42;;;1.33;;
10715;SDS011;5409;42.620;23.316;2023-03-16T08:24:25;0.77;;;0.77;;
10715;SDS011;5409;42.620;23.316;2023-03-16T08:26:52;1.00;;;0.90;;
10715;SDS011;5409;42.620;23.316;2023-03-16T08:29:18;1.20;;;1.13;;
10715;SDS011;5409;42.620;23.316;2023-03-16T08:31:46;4.80;;;1.38;;
10715;SDS011;5409;42.620;23.316;2023-03-16T08:34:13;1.00;;;1.00;;
10715;SDS011;5409;42.620;23.316;2023-03-16T08:36:42;0.90;;;0.90;;
10715;SDS011;5409;42.620;23.316;2023-03-16T08:39:08;0.80;;;0.80;;
10715;SDS011;5409;42.620;23.316;2023-03-16T08:41:35;1.00;;;1.00;;
10715;SDS011;5409;42.620;23.316;2023-03-16T08:44:02;0.82;;;0.82;;
10715;SDS011;5409;42.620;23.316;2023-03-16T08:46:28;1.10;;;1.10;;
10715;SDS011;5409;42.620;23.316;2023-03-16T08:48:56;0.90;;;0.90;;
10715;SDS011;5409;42.620;23.316;2023-03-16T08:51:22;1.25;;;1.13;;
10715;SDS011;5409;42.620;23.316;2023-03-16T08:53:49;0.77;;;0.73;;
10715;SDS011;5409;42.620;23.316;2023-03-16T08:56:16;1.00;;;0.82;;
10715;SDS011;5409;42.620;23.316;2023-03-16T08:58:42;1.02;;;1.02;;
10715;SDS011;5409;42.620;23.316;2023-03-16T09:01:10;0.80;;;0.80;;
10715;SDS011;5409;42.620;23.316;2023-03-16T09:03:37;0.88;;;0.88;;
10715;SDS011;5409;42.620;23.316;2023-03-16T09:06:07;1.00;;;1.00;;
10715;SDS011;5409;42.620;23.316;2023-03-16T09:08:35;0.80;;;0.80;;
10715;SDS011;5409;42.620;23.316;2023-03-16T09:11:04;0.82;;;0.82;;
10715;SDS011;5409;42.620;23.316;2023-03-16T09:13:32;0.80;;;0.80;;
10715;SDS011;5409;42.620;23.316;2023-03-16T09:15:59;0.93;;;0.88;;
10715;SDS011;5409;42.620;23.316;2023-03-16T09:18:25;1.02;;;1.00;;
10715;SDS011;5409;42.620;23.316;2023-03-16T09:20:53;0.88;;;0.88;;
10715;SDS011;5409;42.620;23.316;2023-03-16T09:23:23;0.73;;;0.73;;
10715;SDS011;5409;42.620;23.316;2023-03-16T09:25:50;0.90;;;0.90;;
10715;SDS011;5409;42.620;23.316;2023-03-16T09:28:17;0.85;;;0.85;;
10715;SDS011;5409;42.620;23.316;2023-03-16T09:30:43;0.82;;;0.82;;
10715;SDS011;5409;42.620;23.316;2023-03-16T09:33:11;1.00;;;1.00;;
10715;SDS011;5409;42.620;23.316;2023-03-16T09:35:38;1.13;;;1.13;;
10715;SDS011;5409;42.620;23.316;2023-03-16T09:38:04;1.08;;;1.02;;
10715;SDS011;5409;42.620;23.316;2023-03-16T09:40:32;1.25;;;1.10;;
10715;SDS011;5409;42.620;23.316;2023-03-16T09:43:10;1.42;;;1.15;;
10715;SDS011;5409;42.620;23.316;2023-03-16T09:45:40;1.67;;;1.10;;
10715;SDS011;5409;42.620;23.316;2023-03-16T09:48:09;1.08;;;0.98;;
10715;SDS011;5409;42.620;23.316;2023-03-16T09:50:37;1.17;;;1.08;;
10715;SDS011;5409;42.620;23.316;2023-03-16T09:53:05;1.20;;;1.10;;
10715;SDS011;5409;42.620;23.316;2023-03-16T09:55:35;0.90;;;0.90;;
10715;SDS011;5409;42.620;23.316;2023-03-16T09:58:09;1.40;;;1.30;;
10715;SDS011;5409;42.620;23.316;2023-03-16T10:00:38;2.33;;;1.58;;
10715;SDS011;5409;42.620;23.316;2023-03-16T10:03:18;1.85;;;1.67;;
10715;SDS011;5409;42.620;23.316;2023-03-16T10:05:46;2.15;;;1.92;;
10715;SDS011;5409;42.620;23.316;2023-03-16T10:08:15;2.67;;;1.85;;
10715;SDS011;5409;42.620;23.316;2023-03-16T10:11:01;1.63;;;1.40;;
10715;SDS011;5409;42.620;23.316;2023-03-16T10:13:31;4.47;;;2.50;;
10715;SDS011;5409;42.620;23.316;2023-03-16T10:16:00;2.28;;;1.20;;
10715;SDS011;5409;42.620;23.316;2023-03-16T10:18:29;1.45;;;1.27;;
10715;SDS011;5409;42.620;23.316;2023-03-16T10:20:57;1.45;;;1.35;;
10715;SDS011;5409;42.620;23.316;2023-03-16T10:23:25;1.63;;;1.52;;
10715;SDS011;5409;42.620;23.316;2023-03-16T10:25:51;2.20;;;1.60;;
10715;SDS011;5409;42.620;23.316;2023-03-16T10:28:20;1.48;;;1.38;;
10715;SDS011;5409;42.620;23.316;2023-03-16T10:30:47;2.13;;;1.73;;
10715;SDS011;5409;42.620;23.316;2023-03-16T10:33:17;1.30;;;1.20;;
10715;SDS011;5409;42.620;23.316;2023-03-16T10:35:45;1.50;;;1.40;;
10715;SDS011;5409;42.620;23.316;2023-03-16T10:38:25;1.58;;;1.25;;
10715;SDS011;5409;42.620;23.316;2023-03-16T10:40:52;1.02;;;1.00;;
10715;SDS011;5409;42.620;23.316;2023-03-16T10:43:20;1.35;;;1.15;;
10715;SDS011;5409;42.620;23.316;2023-03-16T10:45:47;1.20;;;1.20;;
10715;SDS011;5409;42.620;23.316;2023-03-16T10:48:14;2.28;;;1.83;;
10715;SDS011;5409;42.620;23.316;2023-03-16T10:50:43;1.38;;;1.27;;
10715;SDS011;5409;42.620;23.316;2023-03-16T10:53:14;1.17;;;1.15;;
10715;SDS011;5409;42.620;23.316;2023-03-16T10:55:41;1.60;;;1.50;;
10715;SDS011;5409;42.620;23.316;2023-03-16T10:58:09;1.95;;;1.75;;
10715;SDS011;5409;42.620;23.316;2023-03-16T11:00:40;1.60;;;1.50;;
10715;SDS011;5409;42.620;23.316;2023-03-16T11:03:12;2.08;;;1.50;;
10715;SDS011;5409;42.620;23.316;2023-03-16T11:05:39;1.60;;;1.50;;
10715;SDS011;5409;42.620;23.316;2023-03-16T11:08:06;1.70;;;1.60;;
10715;SDS011;5409;42.620;23.316;2023-03-16T11:10:35;2.25;;;1.75;;
10715;SDS011;5409;42.620;23.316;2023-03-16T11:13:04;1.65;;;1.50;;
10715;SDS011;5409;42.620;23.316;2023-03-16T11:15:35;2.10;;;1.80;;
10715;SDS011;5409;42.620;23.316;2023-03-16T11:18:03;3.00;;;2.45;;
10715;SDS011;5409;42.620;23.316;2023-03-16T11:20:31;1.35;;;1.25;;
10715;SDS011;5409;42.620;23.316;2023-03-16T11:22:58;1.83;;;1.73;;
10715;SDS011;5409;42.620;23.316;2023-03-16T11:25:26;3.42;;;2.00;;
10715;SDS011;5409;42.620;23.316;2023-03-16T11:27:55;3.75;;;2.13;;
10715;SDS011;5409;42.620;23.316;2023-03-16T11:30:24;1.80;;;1.67;;
10715;SDS011;5409;42.620;23.316;2023-03-16T11:32:53;2.75;;;2.00;;
10715;SDS011;5409;42.620;23.316;2023-03-16T11:35:21;2.28;;;1.85;;
10715;SDS011;5409;42.620;23.316;2023-03-16T11:37:58;2.30;;;2.10;;
10715;SDS011;5409;42.620;23.316;2023-03-16T11:40:31;2.17;;;1.80;;
10715;SDS011;5409;42.620;23.316;2023-03-16T11:43:04;2.47;;;2.17;;
10715;SDS011;5409;42.620;23.316;2023-03-16T11:45:35;2.40;;;1.83;;
10715;SDS011;5409;42.620;23.316;2023-03-16T11:50:45;3.65;;;2.20;;
10715;SDS011;5409;42.620;23.316;2023-03-16T11:53:16;3.00;;;2.30;;
10715;SDS011;5409;42.620;23.316;2023-03-16T11:55:47;3.53;;;2.38;;
10715;SDS011;5409;42.620;23.316;2023-03-16T11:58:28;3.08;;;2.47;;
10715;SDS011;5409;42.620;23.316;2023-03-16T12:01:00;3.72;;;2.70;;
10715;SDS011;5409;42.620;23.316;2023-03-16T12:03:41;3.10;;;2.50;;
10715;SDS011;5409;42.620;23.316;2023-03-16T12:06:15;2.78;;;2.42;;
10715;SDS011;5409;42.620;23.316;2023-03-16T12:08:59;2.50;;;2.30;;
10715;SDS011;5409;42.620;23.316;2023-03-16T12:11:31;2.75;;;1.92;;
10715;SDS011;5409;42.620;23.316;2023-03-16T12:14:03;2.70;;;2.50;;
10715;SDS011;5409;42.620;23.316;2023-03-16T12:16:31;2.10;;;1.90;;
10715;SDS011;5409;42.620;23.316;2023-03-16T12:19:00;5.30;;;2.72;;
10715;SDS011;5409;42.620;23.316;2023-03-16T12:21:30;2.70;;;2.25;;
10715;SDS011;5409;42.620;23.316;2023-03-16T12:23:59;2.10;;;1.80;;
10715;SDS011;5409;42.620;23.316;2023-03-16T12:26:28;3.50;;;2.65;;
10715;SDS011;5409;42.620;23.316;2023-03-16T12:28:57;2.25;;;2.10;;
10715;SDS011;5409;42.620;23.316;2023-03-16T12:31:27;2.30;;;2.00;;
10715;SDS011;5409;42.620;23.316;2023-03-16T12:33:57;2.38;;;2.17;;
10715;SDS011;5409;42.620;23.316;2023-03-16T12:39:13;1.90;;;1.80;;
10715;SDS011;5409;42.620;23.316;2023-03-16T12:41:45;2.80;;;2.60;;
10715;SDS011;5409;42.620;23.316;2023-03-16T12:44:16;2.60;;;2.33;;
10715;SDS011;5409;42.620;23.316;2023-03-16T12:46:47;3.15;;;2.65;;
10715;SDS011;5409;42.620;23.316;2023-03-16T12:49:16;2.95;;;2.45;;
10715;SDS011;5409;42.620;23.316;2023-03-16T12:51:44;2.58;;;2.38;;
10715;SDS011;5409;42.620;23.316;2023-03-16T12:54:19;3.33;;;2.92;;
10715;SDS011;5409;42.620;23.316;2023-03-16T12:56:47;5.25;;;3.80;;
10715;SDS011;5409;42.620;23.316;2023-03-16T12:59:15;5.35;;;4.03;;
10715;SDS011;5409;42.620;23.316;2023-03-16T13:01:42;4.70;;;3.33;;
10715;SDS011;5409;42.620;23.316;2023-03-16T13:04:10;4.93;;;3.35;;
10715;SDS011;5409;42.620;23.316;2023-03-16T13:06:40;3.70;;;2.55;;
10715;SDS011;5409;42.620;23.316;2023-03-16T13:09:08;3.03;;;2.60;;
10715;SDS011;5409;42.620;23.316;2023-03-16T13:11:41;3.63;;;3.33;;
10715;SDS011;5409;42.620;23.316;2023-03-16T13:14:12;4.28;;;3.25;;
10715;SDS011;5409;42.620;23.316;2023-03-16T13:16:41;4.03;;;3.10;;
10715;SDS011;5409;42.620;23.316;2023-03-16T13:19:16;4.70;;;2.95;;
10715;SDS011;5409;42.620;23.316;2023-03-16T13:21:42;3.50;;;2.80;;
10715;SDS011;5409;42.620;23.316;2023-03-16T13:24:14;2.95;;;2.50;;
10715;SDS011;5409;42.620;23.316;2023-03-16T13:26:49;3.55;;;3.15;;
10715;SDS011;5409;42.620;23.316;2023-03-16T13:29:19;3.72;;;2.50;;
10715;SDS011;5409;42.620;23.316;2023-03-16T13:31:47;2.67;;;2.47;;
10715;SDS011;5409;42.620;23.316;2023-03-16T13:34:14;3.35;;;3.05;;
10715;SDS011;5409;42.620;23.316;2023-03-16T13:36:44;3.58;;;2.35;;
10715;SDS011;5409;42.620;23.316;2023-03-16T13:39:13;4.13;;;2.50;;
10715;SDS011;5409;42.620;23.316;2023-03-16T13:41:40;2.65;;;2.45;;
10715;SDS011;5409;42.620;23.316;2023-03-16T13:44:13;3.35;;;2.90;;
10715;SDS011;5409;42.620;23.316;2023-03-16T13:46:39;2.80;;;2.50;;
10715;SDS011;5409;42.620;23.316;2023-03-16T13:49:06;4.18;;;2.85;;
10715;SDS011;5409;42.620;23.316;2023-03-16T13:51:33;4.47;;;3.80;;
10715;SDS011;5409;42.620;23.316;2023-03-16T13:54:04;6.40;;;4.05;;
10715;SDS011;5409;42.620;23.316;2023-03-16T13:56:33;5.43;;;4.27;;
10715;SDS011;5409;42.620;23.316;2023-03-16T13:59:01;4.60;;;3.67;;
10715;SDS011;5409;42.620;23.316;2023-03-16T14:01:30;5.60;;;4.05;;
10715;SDS011;5409;42.620;23.316;2023-03-16T14:03:58;4.72;;;3.90;;
10715;SDS011;5409;42.620;23.316;2023-03-16T14:06:27;3.55;;;3.25;;
10715;SDS011;5409;42.620;23.316;2023-03-16T14:08:55;5.57;;;4.57;;
10715;SDS011;5409;42.620;23.316;2023-03-16T14:11:25;3.88;;;3.42;;
10715;SDS011;5409;42.620;23.316;2023-03-16T14:13:52;6.38;;;4.68;;
10715;SDS011;5409;42.620;23.316;2023-03-16T14:16:20;7.15;;;4.95;;
10715;SDS011;5409;42.620;23.316;2023-03-16T14:18:52;4.72;;;4.20;;
10715;SDS011;5409;42.620;23.316;2023-03-16T14:21:20;7.65;;;6.07;;
10715;SDS011;5409;42.620;23.316;2023-03-16T14:23:49;7.97;;;5.25;;
10715;SDS011;5409;42.620;23.316;2023-03-16T14:26:17;8.48;;;5.43;;
10715;SDS011;5409;42.620;23.316;2023-03-16T14:28:52;6.72;;;4.88;;
10715;SDS011;5409;42.620;23.316;2023-03-16T14:31:19;9.90;;;7.47;;
10715;SDS011;5409;42.620;23.316;2023-03-16T14:33:46;8.88;;;6.20;;
10715;SDS011;5409;42.620;23.316;2023-03-16T14:36:15;8.10;;;6.28;;
10715;SDS011;5409;42.620;23.316;2023-03-16T14:38:43;10.27;;;6.18;;
10715;SDS011;5409;42.620;23.316;2023-03-16T14:41:16;6.93;;;5.05;;
10715;SDS011;5409;42.620;23.316;2023-03-16T14:43:44;7.80;;;6.95;;
10715;SDS011;5409;42.620;23.316;2023-03-16T14:46:12;5.50;;;4.30;;
10715;SDS011;5409;42.620;23.316;2023-03-16T14:48:40;6.25;;;4.45;;
10715;SDS011;5409;42.620;23.316;2023-03-16T14:51:08;7.68;;;4.97;;
10715;SDS011;5409;42.620;23.316;2023-03-16T14:53:38;8.45;;;4.93;;
10715;SDS011;5409;42.620;23.316;2023-03-16T14:56:08;7.07;;;5.05;;
10715;SDS011;5409;42.620;23.316;2023-03-16T14:58:36;5.13;;;4.30;;